Time;durP1;ratioP1;P1;durP2;ratioP2;P2;SDS_P1;SDS_P2;PMS_P1;PMS_P2;Temp;Humidity;BMP_temperature;BMP_pressure;BME280_temperature;BME280_humidity;BME280_pressure;Samples;Min_cycle;Max_cycle;Signal;HPM_P1;HPM_P2
2022/04/23 00:00:35;;;;;;;15.22;12.78;;;;;;;;;;5283510;28;20021;-67
2022/04/23 00:03:07;;;;;;;14.20;12.90;;;;;;;;;;5284686;28;20013;-68
2022/04/23 00:05:38;;;;;;;14.75;13.25;;;;;;;;;;5281799;28;20023;-68
2022/04/23 00:08:09;;;;;;;15.27;13.68;;;;;;;;;;5284562;28;20025;-68
2022/04/23 00:10:41;;;;;;;14.98;13.07;;;;;;;;;;5284009;28;20267;-69
2022/04/23 00:13:12;;;;;;;16.55;13.48;;;;;;;;;;5283844;28;20091;-67
2022/04/23 00:15:43;;;;;;;16.75;14.82;;;;;;;;;;5283572;28;20055;-68
2022/04/23 00:18:14;;;;;;;15.20;13.60;;;;;;;;;;5284418;28;20769;-69
2022/04/23 00:20:48;;;;;;;16.42;13.82;;;;;;;;;;5282831;28;20383;-69
2022/04/23 00:23:19;;;;;;;17.90;14.60;;;;;;;;;;5284069;28;20262;-68
2022/04/23 00:25:52;;;;;;;15.65;14.02;;;;;;;;;;5283958;28;20028;-68
2022/04/23 00:28:23;;;;;;;17.33;14.80;;;;;;;;;;5282848;28;20097;-69
2022/04/23 00:30:54;;;;;;;16.73;14.93;;;;;;;;;;5284155;28;20059;-68
2022/04/23 00:33:25;;;;;;;16.25;14.55;;;;;;;;;;5282563;28;20025;-69
2022/04/23 00:35:57;;;;;;;17.67;13.90;;;;;;;;;;5283999;28;20838;-69
2022/04/23 00:38:28;;;;;;;16.35;14.48;;;;;;;;;;5283431;28;20046;-68
2022/04/23 00:40:59;;;;;;;16.55;14.70;;;;;;;;;;5283348;28;20032;-68
2022/04/23 00:43:33;;;;;;;18.33;14.40;;;;;;;;;;5283568;28;20102;-68
2022/04/23 00:46:05;;;;;;;15.85;14.25;;;;;;;;;;5283990;28;20057;-68
2022/04/23 00:48:36;;;;;;;18.70;14.98;;;;;;;;;;5282444;28;20027;-68
2022/04/23 00:51:07;;;;;;;16.83;14.68;;;;;;;;;;5283569;28;20040;-69
2022/04/23 00:53:38;;;;;;;17.42;14.45;;;;;;;;;;5283189;28;20724;-69
2022/04/23 00:56:10;;;;;;;18.33;14.43;;;;;;;;;;5283075;28;20328;-69
2022/04/23 00:58:41;;;;;;;16.80;14.52;;;;;;;;;;5282943;28;20029;-69
2022/04/23 01:01:14;;;;;;;18.75;15.55;;;;;;;;;;5283517;28;20507;-69
2022/04/23 01:03:45;;;;;;;16.77;15.00;;;;;;;;;;5282549;28;20390;-69
2022/04/23 01:06:18;;;;;;;16.38;14.65;;;;;;;;;;5283700;28;20062;-69
2022/04/23 01:08:49;;;;;;;18.83;16.15;;;;;;;;;;5282279;28;20613;-69
2022/04/23 01:11:20;;;;;;;15.52;14.02;;;;;;;;;;5283172;28;20090;-69
2022/04/23 01:13:51;;;;;;;16.88;14.50;;;;;;;;;;5282728;28;20271;-69
2022/04/23 01:16:22;;;;;;;18.08;15.52;;;;;;;;;;5281592;28;20266;-69
2022/04/23 01:18:54;;;;;;;20.10;15.75;;;;;;;;;;5283258;28;20348;-69
2022/04/23 01:21:26;;;;;;;18.83;15.73;;;;;;;;;;5282487;28;20056;-69
2022/04/23 01:23:57;;;;;;;21.02;16.58;;;;;;;;;;5282259;28;20464;-68
2022/04/23 01:26:29;;;;;;;19.75;15.48;;;;;;;;;;5282350;28;20035;-69
2022/04/23 01:29:01;;;;;;;18.55;16.55;;;;;;;;;;5283144;28;20009;-69
2022/04/23 01:31:32;;;;;;;18.52;16.48;;;;;;;;;;5281601;28;20039;-69
2022/04/23 01:34:04;;;;;;;20.13;16.30;;;;;;;;;;5282764;28;20032;-69
2022/04/23 01:36:35;;;;;;;17.48;15.60;;;;;;;;;;5281507;28;20503;-69
2022/04/23 01:39:06;;;;;;;17.88;15.73;;;;;;;;;;5282726;28;20012;-68
2022/04/23 01:41:37;;;;;;;18.02;15.85;;;;;;;;;;5282222;28;20027;-68
2022/04/23 01:44:09;;;;;;;18.73;16.80;;;;;;;;;;5282030;28;20266;-68
2022/04/23 01:46:40;;;;;;;18.75;15.88;;;;;;;;;;5282069;28;20567;-68
2022/04/23 01:49:11;;;;;;;17.98;16.15;;;;;;;;;;5282544;28;20270;-68
2022/04/23 01:51:42;;;;;;;19.00;16.63;;;;;;;;;;5280855;28;20293;-68
2022/04/23 01:54:13;;;;;;;20.05;17.77;;;;;;;;;;5282680;28;20082;-68
2022/04/23 01:56:44;;;;;;;19.90;17.30;;;;;;;;;;5282036;28;20319;-68
2022/04/23 01:59:16;;;;;;;18.65;16.77;;;;;;;;;;5282027;28;20035;-68
2022/04/23 02:01:49;;;;;;;19.55;17.50;;;;;;;;;;5281594;28;20025;-68
2022/04/23 02:04:20;;;;;;;19.33;17.38;;;;;;;;;;5282197;28;20179;-68
2022/04/23 02:06:51;;;;;;;20.58;18.52;;;;;;;;;;5281272;28;20129;-68
2022/04/23 02:09:23;;;;;;;20.58;18.38;;;;;;;;;;5281689;28;20274;-68
2022/04/23 02:11:56;;;;;;;23.45;18.15;;;;;;;;;;5281315;28;20036;-68
2022/04/23 02:14:28;;;;;;;21.70;19.58;;;;;;;;;;5281327;28;20043;-68
2022/04/23 02:16:59;;;;;;;22.02;19.77;;;;;;;;;;5282047;28;20024;-68
2022/04/23 02:19:30;;;;;;;25.05;20.40;;;;;;;;;;5280871;28;20387;-68
2022/04/23 02:22:02;;;;;;;23.13;20.50;;;;;;;;;;5281935;28;20186;-68
2022/04/23 02:24:33;;;;;;;23.77;19.40;;;;;;;;;;5281302;28;20607;-68
2022/04/23 02:27:04;;;;;;;24.80;22.15;;;;;;;;;;5280905;28;20025;-68
2022/04/23 02:29:35;;;;;;;22.78;20.38;;;;;;;;;;5280449;28;20425;-68
2022/04/23 02:32:06;;;;;;;23.95;20.30;;;;;;;;;;5282022;28;20391;-68
2022/04/23 02:34:39;;;;;;;22.98;20.52;;;;;;;;;;5280415;28;20027;-69
2022/04/23 02:37:11;;;;;;;22.75;20.45;;;;;;;;;;5281826;28;20016;-68
2022/04/23 02:39:43;;;;;;;24.65;22.13;;;;;;;;;;5281050;28;20065;-68
2022/04/23 02:42:14;;;;;;;22.75;20.40;;;;;;;;;;5281431;28;20020;-68
2022/04/23 02:44:45;;;;;;;27.05;23.05;;;;;;;;;;5281140;28;20023;-68
2022/04/23 02:47:17;;;;;;;25.73;23.08;;;;;;;;;;5281054;28;20039;-68
2022/04/23 02:49:48;;;;;;;27.70;22.67;;;;;;;;;;5281213;28;20254;-68
2022/04/23 02:52:20;;;;;;;24.58;21.92;;;;;;;;;;5281513;28;20033;-68
2022/04/23 02:54:51;;;;;;;27.45;24.50;;;;;;;;;;5280428;28;20270;-68
2022/04/23 02:57:22;;;;;;;25.60;23.00;;;;;;;;;;5280986;28;20051;-69
2022/04/23 02:59:53;;;;;;;27.05;24.17;;;;;;;;;;5281551;28;20262;-68
2022/04/23 03:02:25;;;;;;;27.84;22.32;;;;;;;;;;5280131;28;20518;-68
2022/04/23 03:04:56;;;;;;;25.23;22.55;;;;;;;;;;5281554;28;20549;-68
2022/04/23 03:07:29;;;;;;;25.17;22.52;;;;;;;;;;5281123;28;20020;-68
2022/04/23 03:10:02;;;;;;;25.13;22.50;;;;;;;;;;5280801;28;20012;-68
2022/04/23 03:12:36;;;;;;;25.58;22.90;;;;;;;;;;5280806;28;20059;-68
2022/04/23 03:15:11;;;;;;;29.55;25.20;;;;;;;;;;5280696;28;20131;-68
2022/04/23 03:17:43;;;;;;;26.10;23.35;;;;;;;;;;5281064;28;20509;-69
2022/04/23 03:20:14;;;;;;;27.83;24.85;;;;;;;;;;5281439;28;20016;-68
2022/04/23 03:22:46;;;;;;;30.25;26.05;;;;;;;;;;5262066;28;20413;-68
2022/04/23 03:25:17;;;;;;;28.48;25.42;;;;;;;;;;5281359;28;20028;-68
2022/04/23 03:27:48;;;;;;;29.20;25.45;;;;;;;;;;5280970;28;20299;-68
2022/04/23 03:30:20;;;;;;;29.83;24.40;;;;;;;;;;5280280;28;20267;-68
2022/04/23 03:32:51;;;;;;;28.52;25.02;;;;;;;;;;5280969;28;20486;-68
2022/04/23 03:35:22;;;;;;;29.86;26.76;;;;;;;;;;5280751;28;20028;-68
2022/04/23 03:37:55;;;;;;;33.85;27.50;;;;;;;;;;5280225;28;20031;-68
2022/04/23 03:40:26;;;;;;;29.80;26.63;;;;;;;;;;5282911;28;20120;-68
2022/04/23 03:42:58;;;;;;;31.15;27.33;;;;;;;;;;5284913;28;20095;-68
2022/04/23 03:45:31;;;;;;;30.52;26.75;;;;;;;;;;5283518;28;20278;-68
2022/04/23 03:48:02;;;;;;;32.00;27.23;;;;;;;;;;5284730;28;20017;-68
2022/04/23 03:50:35;;;;;;;30.98;26.67;;;;;;;;;;5283530;28;20020;-68
2022/04/23 03:53:06;;;;;;;31.45;28.20;;;;;;;;;;5284575;28;20083;-68
2022/04/23 03:55:38;;;;;;;32.22;28.52;;;;;;;;;;5283964;28;20430;-68
2022/04/23 03:58:09;;;;;;;35.65;27.98;;;;;;;;;;5284148;28;20395;-68
2022/04/23 04:00:40;;;;;;;31.80;28.50;;;;;;;;;;5284313;28;20021;-68
2022/04/23 04:03:11;;;;;;;32.53;27.45;;;;;;;;;;5284859;28;20289;-67
2022/04/23 04:05:42;;;;;;;34.42;27.48;;;;;;;;;;5283284;28;20271;-68
2022/04/23 04:08:14;;;;;;;29.95;26.75;;;;;;;;;;5284592;28;20359;-68
2022/04/23 04:10:45;;;;;;;31.50;26.83;;;;;;;;;;5283923;28;20287;-68
2022/04/23 04:13:16;;;;;;;31.63;28.30;;;;;;;;;;5283645;28;20032;-68
2022/04/23 04:15:49;;;;;;;31.95;28.65;;;;;;;;;;5283741;28;20051;-68
2022/04/23 04:18:21;;;;;;;32.78;29.15;;;;;;;;;;5283717;28;20291;-69
2022/04/23 04:20:53;;;;;;;29.50;26.40;;;;;;;;;;5283957;28;20382;-69
2022/04/23 04:23:26;;;;;;;32.25;27.50;;;;;;;;;;5283751;28;20020;-69
2022/04/23 04:25:57;;;;;;;31.45;27.33;;;;;;;;;;5283669;28;20021;-69
2022/04/23 04:28:29;;;;;;;32.42;27.67;;;;;;;;;;5283735;28;20470;-69
2022/04/23 04:33:50;;;;;;;31.80;28.25;;;;;;;;;;5283145;28;20016;-69
2022/04/23 04:36:21;;;;;;;34.55;28.23;;;;;;;;;;5283447;28;20021;-69
2022/04/23 04:38:53;;;;;;;31.48;28.00;;;;;;;;;;5284134;28;20267;-69
2022/04/23 04:41:24;;;;;;;30.42;27.15;;;;;;;;;;5282674;28;20630;-69
2022/04/23 04:43:55;;;;;;;31.40;28.23;;;;;;;;;;5283901;28;20285;-69
2022/04/23 04:46:26;;;;;;;31.90;28.52;;;;;;;;;;5283175;28;20024;-69
2022/04/23 04:48:57;;;;;;;31.35;28.20;;;;;;;;;;5283316;28;20628;-69
2022/04/23 04:51:29;;;;;;;30.85;27.63;;;;;;;;;;5282218;28;20452;-69
2022/04/23 04:54:00;;;;;;;33.00;29.50;;;;;;;;;;5282960;28;20479;-69
2022/04/23 04:56:32;;;;;;;31.08;27.83;;;;;;;;;;5283156;28;20027;-69
2022/04/23 04:59:03;;;;;;;31.98;27.58;;;;;;;;;;5283737;28;20012;-69
2022/04/23 05:01:34;;;;;;;31.90;28.42;;;;;;;;;;5282337;28;20092;-69
2022/04/23 05:04:05;;;;;;;30.35;27.25;;;;;;;;;;5283514;28;20028;-69
2022/04/23 05:06:36;;;;;;;32.15;28.95;;;;;;;;;;5282747;28;20762;-69
2022/04/23 05:09:08;;;;;;;30.63;26.83;;;;;;;;;;5282606;28;20029;-69
2022/04/23 05:11:39;;;;;;;30.88;27.60;;;;;;;;;;5282554;28;20283;-69
2022/04/23 05:14:10;;;;;;;30.50;27.40;;;;;;;;;;5283421;28;20050;-70
2022/04/23 05:16:41;;;;;;;31.05;27.77;;;;;;;;;;5282207;28;20028;-69
2022/04/23 05:19:12;;;;;;;32.00;28.70;;;;;;;;;;5283349;28;20422;-69
2022/04/23 05:21:44;;;;;;;30.02;27.05;;;;;;;;;;5281507;28;20274;-69
2022/04/23 05:24:15;;;;;;;30.92;27.52;;;;;;;;;;5283258;28;20372;-69
2022/04/23 05:26:46;;;;;;;29.20;25.08;;;;;;;;;;5282636;28;20020;-69
2022/04/23 05:29:17;;;;;;;29.92;25.55;;;;;;;;;;5282311;28;20255;-69
2022/04/23 05:31:48;;;;;;;31.02;26.58;;;;;;;;;;5282413;28;20300;-69
2022/04/23 05:34:19;;;;;;;29.85;26.73;;;;;;;;;;5282507;28;20016;-69
2022/04/23 05:36:50;;;;;;;30.25;26.70;;;;;;;;;;5281776;28;20290;-69
2022/04/23 05:39:22;;;;;;;30.33;27.17;;;;;;;;;;5282325;28;20016;-69
2022/04/23 05:41:53;;;;;;;30.33;27.33;;;;;;;;;;5282892;28;20267;-69
2022/04/23 05:44:24;;;;;;;28.67;25.50;;;;;;;;;;5281372;28;20781;-68
2022/04/23 05:46:55;;;;;;;29.05;26.15;;;;;;;;;;5282570;28;20289;-68
2022/04/23 05:49:27;;;;;;;28.58;25.55;;;;;;;;;;5282230;28;20328;-68
2022/04/23 05:51:58;;;;;;;27.55;24.60;;;;;;;;;;5281845;28;20035;-68
2022/04/23 05:54:29;;;;;;;28.40;25.30;;;;;;;;;;5281969;28;20024;-69
2022/04/23 05:57:00;;;;;;;28.25;25.35;;;;;;;;;;5281699;28;20266;-68
2022/04/23 05:59:31;;;;;;;29.27;25.23;;;;;;;;;;5281648;28;20024;-67
2022/04/23 06:02:03;;;;;;;28.95;25.92;;;;;;;;;;5282599;28;20095;-68
2022/04/23 06:04:34;;;;;;;28.35;25.45;;;;;;;;;;5281097;28;20027;-68
2022/04/23 06:07:05;;;;;;;27.85;24.55;;;;;;;;;;5282273;28;20112;-68
2022/04/23 06:09:36;;;;;;;28.63;25.65;;;;;;;;;;5281697;28;20495;-68
2022/04/23 06:12:08;;;;;;;26.70;23.75;;;;;;;;;;5281370;28;20044;-68
2022/04/23 06:14:39;;;;;;;29.08;25.52;;;;;;;;;;5281351;28;20290;-67
2022/04/23 06:17:12;;;;;;;27.10;24.38;;;;;;;;;;5282302;28;20025;-69
2022/04/23 06:19:43;;;;;;;26.42;23.65;;;;;;;;;;5280908;28;20417;-69
2022/04/23 06:22:14;;;;;;;26.30;23.70;;;;;;;;;;5281820;28;20036;-69
2022/04/23 06:24:46;;;;;;;26.48;23.83;;;;;;;;;;5281663;28;20278;-67
2022/04/23 06:27:17;;;;;;;27.58;24.67;;;;;;;;;;5281227;28;20278;-70
2022/04/23 06:29:49;;;;;;;25.08;22.58;;;;;;;;;;5281493;28;20390;-70
2022/04/23 06:32:20;;;;;;;27.45;24.85;;;;;;;;;;5281055;28;20395;-70
2022/04/23 06:34:51;;;;;;;27.40;24.83;;;;;;;;;;5281704;28;20099;-70
2022/04/23 06:37:22;;;;;;;25.15;22.67;;;;;;;;;;5281394;28;20059;-68
2022/04/23 06:39:53;;;;;;;25.08;22.58;;;;;;;;;;5281165;28;20345;-68
2022/04/23 06:42:24;;;;;;;24.55;21.73;;;;;;;;;;5281167;28;20660;-68
2022/04/23 06:44:56;;;;;;;24.92;22.30;;;;;;;;;;5281988;28;20286;-68
2022/04/23 06:47:27;;;;;;;23.95;21.52;;;;;;;;;;5280771;28;20259;-68
2022/04/23 06:49:58;;;;;;;23.80;21.58;;;;;;;;;;5282083;28;20020;-69
2022/04/23 06:52:30;;;;;;;22.80;20.60;;;;;;;;;;5281423;28;20032;-68
2022/04/23 06:55:02;;;;;;;24.02;21.73;;;;;;;;;;5281167;28;20096;-68
2022/04/23 06:57:42;;;;;;;23.33;19.77;;;;;;;;;;5281068;28;20035;-68
2022/04/23 07:00:14;;;;;;;21.50;19.23;;;;;;;;;;5281200;28;20337;-68
2022/04/23 07:02:45;;;;;;;21.45;19.42;;;;;;;;;;5281282;28;20016;-68
2022/04/23 07:05:17;;;;;;;21.77;19.67;;;;;;;;;;5281790;28;20021;-70
2022/04/23 07:07:55;;;;;;;19.73;17.83;;;;;;;;;;5280016;28;20013;-68
2022/04/23 07:10:27;;;;;;;20.70;18.33;;;;;;;;;;5280874;28;20049;-69
2022/04/23 07:12:58;;;;;;;21.13;19.13;;;;;;;;;;5281369;28;20126;-69
2022/04/23 07:15:30;;;;;;;21.55;19.35;;;;;;;;;;5282640;28;20371;-70
2022/04/23 07:18:01;;;;;;;21.73;19.52;;;;;;;;;;5285796;28;20020;-69
2022/04/23 07:20:32;;;;;;;22.58;20.33;;;;;;;;;;5285112;28;20020;-68
2022/04/23 07:25:54;;;;;;;22.80;20.70;;;;;;;;;;5286140;28;20364;-69
2022/04/23 07:28:25;;;;;;;22.23;19.85;;;;;;;;;;5284060;28;20016;-68
2022/04/23 07:30:57;;;;;;;20.63;18.65;;;;;;;;;;5285386;28;20029;-69
2022/04/23 07:39:07;;;;;;;20.30;18.20;;;;;;;;;;5285134;28;20028;-69
2022/04/23 07:41:38;;;;;;;19.57;17.77;;;;;;;;;;5284179;28;20460;-69
2022/04/23 07:44:10;;;;;;;19.55;17.73;;;;;;;;;;5284354;28;20772;-69
2022/04/23 07:46:41;;;;;;;19.85;17.80;;;;;;;;;;5284205;28;20036;-69
2022/04/23 07:49:13;;;;;;;19.58;17.73;;;;;;;;;;5285020;28;20621;-69
2022/04/23 07:51:46;;;;;;;19.85;17.95;;;;;;;;;;5283409;28;20033;-69
2022/04/23 07:54:17;;;;;;;20.00;18.17;;;;;;;;;;5284863;28;20123;-69
2022/04/23 07:56:48;;;;;;;18.83;16.88;;;;;;;;;;5283664;28;20020;-69
2022/04/23 07:59:20;;;;;;;18.73;16.75;;;;;;;;;;5284685;28;20013;-69
2022/04/23 08:01:52;;;;;;;19.02;17.33;;;;;;;;;;5284687;28;20258;-69
2022/04/23 08:04:23;;;;;;;18.13;16.42;;;;;;;;;;5283274;28;20357;-69
2022/04/23 08:06:54;;;;;;;17.73;16.05;;;;;;;;;;5284799;28;20271;-69
2022/04/23 08:09:25;;;;;;;18.07;16.47;;;;;;;;;;5284126;28;20755;-69
2022/04/23 08:11:56;;;;;;;17.20;15.50;;;;;;;;;;5284246;28;20773;-69
2022/04/23 08:14:27;;;;;;;17.05;15.18;;;;;;;;;;5283667;28;20313;-69
2022/04/23 08:16:59;;;;;;;16.98;15.20;;;;;;;;;;5284454;28;20021;-69
2022/04/23 08:19:30;;;;;;;17.48;15.85;;;;;;;;;;5283017;28;20763;-69
2022/04/23 08:22:01;;;;;;;17.15;15.32;;;;;;;;;;5284412;28;20349;-69
2022/04/23 08:24:33;;;;;;;17.65;15.93;;;;;;;;;;5283164;28;20023;-69
2022/04/23 08:27:04;;;;;;;17.02;15.32;;;;;;;;;;5283043;28;20028;-70
2022/04/23 08:32:25;;;;;;;16.73;15.07;;;;;;;;;;5282880;28;20291;-70
2022/04/23 08:34:56;;;;;;;18.30;16.50;;;;;;;;;;5284167;28;20017;-70
2022/04/23 08:37:27;;;;;;;18.55;16.67;;;;;;;;;;5283714;28;20749;-70
2022/04/23 08:39:59;;;;;;;17.90;16.10;;;;;;;;;;5283188;28;20118;-69
2022/04/23 08:42:31;;;;;;;17.77;16.08;;;;;;;;;;5283437;28;20270;-69
2022/04/23 08:45:02;;;;;;;17.45;15.68;;;;;;;;;;5284098;28;20491;-69
2022/04/23 08:47:35;;;;;;;18.15;16.30;;;;;;;;;;5282544;28;20013;-70
2022/04/23 08:50:08;;;;;;;18.98;17.17;;;;;;;;;;5283892;28;20043;-70
2022/04/23 08:52:41;;;;;;;22.30;15.98;;;;;;;;;;5282699;28;20029;-70
2022/04/23 08:55:16;;;;;;;18.25;16.33;;;;;;;;;;5283761;28;20062;-69
2022/04/23 08:57:48;;;;;;;18.75;16.77;;;;;;;;;;5283113;28;20037;-69
2022/04/23 09:00:19;;;;;;;18.85;17.15;;;;;;;;;;5282600;28;20036;-69
2022/04/23 09:02:50;;;;;;;19.83;17.80;;;;;;;;;;5283376;28;20031;-69
2022/04/23 09:05:24;;;;;;;19.35;17.55;;;;;;;;;;5283120;28;20306;-69
2022/04/23 09:07:56;;;;;;;19.05;17.35;;;;;;;;;;5282842;28;20020;-68
2022/04/23 09:10:44;;;;;;;18.65;16.92;;;;;;;;;;5282891;28;20082;-69
2022/04/23 09:13:27;;;;;;;20.00;17.60;;;;;;;;;;5282858;28;20055;-70
2022/04/23 09:24:42;;;;;;;23.15;20.95;;;;;;;;;;5282639;28;20071;-70
2022/04/23 09:27:13;;;;;;;22.02;20.10;;;;;;;;;;5282822;28;20432;-69
2022/04/23 09:30:01;;;;;;;22.50;20.40;;;;;;;;;;5281129;28;20433;-68
2022/04/23 09:32:32;;;;;;;21.58;19.35;;;;;;;;;;5281920;28;20052;-68
2022/04/23 09:35:08;;;;;;;23.63;21.27;;;;;;;;;;5281844;28;20021;-69
2022/04/23 09:40:29;;;;;;;20.88;18.70;;;;;;;;;;5282199;28;20032;-69
2022/04/23 09:43:08;;;;;;;19.20;17.42;;;;;;;;;;5281473;28;20008;-70
2022/04/23 09:45:41;;;;;;;20.70;18.80;;;;;;;;;;5281817;28;20115;-70
2022/04/23 09:48:12;;;;;;;21.13;19.13;;;;;;;;;;5282310;28;20044;-70
2022/04/23 09:50:44;;;;;;;20.48;18.58;;;;;;;;;;5280927;28;20477;-69
2022/04/23 09:53:19;;;;;;;20.80;18.98;;;;;;;;;;5281983;28;20036;-69
2022/04/23 09:55:51;;;;;;;22.45;20.33;;;;;;;;;;5281855;28;20475;-71
2022/04/23 09:58:22;;;;;;;20.77;18.83;;;;;;;;;;5280520;28;20105;-68
2022/04/23 10:00:55;;;;;;;21.43;19.53;;;;;;;;;;5281839;28;20200;-68
2022/04/23 10:03:29;;;;;;;22.05;20.02;;;;;;;;;;5280304;28;20274;-69
2022/04/23 10:06:04;;;;;;;22.88;20.70;;;;;;;;;;5282500;28;20015;-70
2022/04/23 10:08:37;;;;;;;22.73;20.48;;;;;;;;;;5281139;28;20529;-69
2022/04/23 10:11:14;;;;;;;22.83;20.70;;;;;;;;;;5281201;28;20016;-69
2022/04/23 10:13:48;;;;;;;23.25;20.95;;;;;;;;;;5280759;28;20031;-69
2022/04/23 10:16:19;;;;;;;24.00;21.88;;;;;;;;;;5281873;28;20359;-69
2022/04/23 10:18:51;;;;;;;23.90;21.65;;;;;;;;;;5280964;28;20103;-69
2022/04/23 10:21:30;;;;;;;23.65;20.90;;;;;;;;;;5281341;28;20646;-69
2022/04/23 10:24:10;;;;;;;22.50;20.48;;;;;;;;;;5281546;28;20025;-69
2022/04/23 10:26:41;;;;;;;23.52;21.33;;;;;;;;;;5281228;28;20035;-69
2022/04/23 10:29:16;;;;;;;25.27;23.08;;;;;;;;;;5281542;28;20028;-69
2022/04/23 10:32:06;;;;;;;24.27;22.05;;;;;;;;;;5280218;28;20028;-70
2022/04/23 10:34:38;;;;;;;23.00;20.90;;;;;;;;;;5281146;28;20367;-70
2022/04/23 10:37:17;;;;;;;23.55;21.45;;;;;;;;;;5281961;28;20028;-69
2022/04/23 10:39:51;;;;;;;23.33;21.13;;;;;;;;;;5280381;28;20044;-70
2022/04/23 10:42:23;;;;;;;23.98;21.75;;;;;;;;;;5281102;28;20017;-69
2022/04/23 10:45:03;;;;;;;24.88;22.50;;;;;;;;;;5281595;28;20028;-69
2022/04/23 10:47:35;;;;;;;24.80;22.08;;;;;;;;;;5280143;28;20025;-69
2022/04/23 10:50:17;;;;;;;23.63;21.60;;;;;;;;;;5280935;28;20115;-69
2022/04/23 10:52:53;;;;;;;26.17;23.15;;;;;;;;;;5280209;28;20040;-69
2022/04/23 10:55:25;;;;;;;24.15;21.98;;;;;;;;;;5280987;28;20040;-70
2022/04/23 10:58:16;;;;;;;23.40;21.30;;;;;;;;;;5281726;28;20059;-68
2022/04/23 11:00:48;;;;;;;23.27;21.13;;;;;;;;;;5279765;28;20286;-69
2022/04/23 11:03:26;;;;;;;24.13;21.67;;;;;;;;;;5281229;28;20081;-68
2022/04/23 11:12:36;;;;;;;22.52;20.23;;;;;;;;;;5195411;28;20043;-68
2022/04/23 11:15:17;;;;;;;21.55;19.35;;;;;;;;;;5270516;28;20044;-68
2022/04/23 11:17:53;;;;;;;22.30;19.55;;;;;;;;;;5281110;28;20013;-68
2022/04/23 11:20:25;;;;;;;20.45;18.60;;;;;;;;;;5280116;28;20024;-68
2022/04/23 11:22:57;;;;;;;19.60;17.63;;;;;;;;;;5281416;28;20031;-68
2022/04/23 11:25:30;;;;;;;20.60;18.63;;;;;;;;;;5280934;28;20099;-68
2022/04/23 11:28:14;;;;;;;22.25;20.00;;;;;;;;;;5280881;28;20016;-68
2022/04/23 11:30:45;;;;;;;23.33;20.88;;;;;;;;;;5280698;28;20060;-69
2022/04/23 11:33:17;;;;;;;22.25;19.92;;;;;;;;;;5281260;28;20479;-68
2022/04/23 11:35:48;;;;;;;20.75;18.55;;;;;;;;;;5280024;28;20096;-68
2022/04/23 11:38:24;;;;;;;21.85;19.23;;;;;;;;;;5280879;28;20024;-70
2022/04/23 11:40:56;;;;;;;21.10;18.80;;;;;;;;;;5281094;28;20391;-69
2022/04/23 11:43:28;;;;;;;21.02;19.02;;;;;;;;;;5279984;28;20017;-70
2022/04/23 11:46:03;;;;;;;20.55;18.52;;;;;;;;;;5281420;28;20027;-70
2022/04/23 11:48:44;;;;;;;20.85;18.85;;;;;;;;;;5279710;28;20032;-69
2022/04/23 11:51:16;;;;;;;24.98;19.25;;;;;;;;;;5280911;28;20060;-69
2022/04/23 11:53:48;;;;;;;21.90;18.52;;;;;;;;;;5280552;28;20113;-69
2022/04/23 11:56:23;;;;;;;19.98;18.08;;;;;;;;;;5279514;28;20124;-70
2022/04/23 11:58:56;;;;;;;19.85;18.05;;;;;;;;;;5280772;28;20024;-69
2022/04/23 12:01:27;;;;;;;21.45;19.35;;;;;;;;;;5282265;28;20028;-70
2022/04/23 12:03:59;;;;;;;19.73;17.83;;;;;;;;;;5283554;28;20450;-70
2022/04/23 12:06:43;;;;;;;20.30;18.05;;;;;;;;;;5284120;28;20021;-69
2022/04/23 12:09:14;;;;;;;21.30;19.30;;;;;;;;;;5284513;28;20020;-70
2022/04/23 12:11:57;;;;;;;22.17;20.07;;;;;;;;;;5282894;28;20038;-70
2022/04/23 12:14:28;;;;;;;18.80;17.00;;;;;;;;;;5283393;28;20865;-70
2022/04/23 12:17:06;;;;;;;21.00;18.98;;;;;;;;;;5283621;28;20040;-70
2022/04/23 12:19:37;;;;;;;18.90;16.92;;;;;;;;;;5283676;28;20306;-69
2022/04/23 12:22:08;;;;;;;19.88;17.77;;;;;;;;;;5284062;28;20043;-70
2022/04/23 12:24:39;;;;;;;20.02;18.13;;;;;;;;;;5282581;28;20012;-70
2022/04/23 12:27:11;;;;;;;18.83;16.80;;;;;;;;;;5283941;28;20017;-69
2022/04/23 12:41:55;;;;;;;21.75;19.48;;;;;;;;;;5283659;28;20076;-68
2022/04/23 12:44:40;;;;;;;20.27;18.38;;;;;;;;;;5283241;28;20111;-67
2022/04/23 12:47:27;;;;;;;21.60;17.55;;;;;;;;;;5282804;28;20467;-68
2022/04/23 12:50:00;;;;;;;21.60;18.73;;;;;;;;;;5284288;28;20020;-68
2022/04/23 12:52:37;;;;;;;19.25;17.45;;;;;;;;;;5282199;28;20127;-68
2022/04/23 12:55:14;;;;;;;18.65;16.75;;;;;;;;;;5283377;28;20025;-68
2022/04/23 12:57:52;;;;;;;19.50;17.45;;;;;;;;;;5282686;28;20020;-68
2022/04/23 13:00:24;;;;;;;19.63;16.52;;;;;;;;;;5281668;28;20025;-68
2022/04/23 13:02:58;;;;;;;20.70;18.38;;;;;;;;;;5282977;28;20019;-69
2022/04/23 13:05:29;;;;;;;19.23;17.35;;;;;;;;;;5282523;28;20351;-68
2022/04/23 13:10:51;;;;;;;18.77;16.65;;;;;;;;;;5282760;28;20029;-68
2022/04/23 13:13:22;;;;;;;18.23;16.40;;;;;;;;;;5280939;28;20032;-68
2022/04/23 13:15:53;;;;;;;17.58;15.52;;;;;;;;;;5282738;28;20049;-68
2022/04/23 13:18:24;;;;;;;18.00;16.20;;;;;;;;;;5282104;28;20035;-68
2022/04/23 13:20:55;;;;;;;17.13;15.35;;;;;;;;;;5281973;28;20028;-68
2022/04/23 13:23:26;;;;;;;18.23;16.45;;;;;;;;;;5282292;28;20387;-68
2022/04/23 13:25:57;;;;;;;17.83;14.20;;;;;;;;;;5283016;28;20089;-68
2022/04/23 13:28:29;;;;;;;15.40;13.98;;;;;;;;;;5281366;28;20032;-68
2022/04/23 13:31:00;;;;;;;16.45;14.77;;;;;;;;;;5282665;28;20074;-68
2022/04/23 13:33:31;;;;;;;14.98;13.48;;;;;;;;;;5282053;28;20281;-68
2022/04/23 13:36:03;;;;;;;14.57;12.60;;;;;;;;;;5282130;28;20480;-68
2022/04/23 13:38:34;;;;;;;15.73;11.90;;;;;;;;;;5282044;28;20070;-68
2022/04/23 13:41:07;;;;;;;12.77;11.48;;;;;;;;;;5281523;28;20090;-68
2022/04/23 13:43:40;;;;;;;11.27;10.05;;;;;;;;;;5281720;28;20111;-68
2022/04/23 13:46:11;;;;;;;11.40;10.38;;;;;;;;;;5282213;28;20021;-68
2022/04/23 13:48:43;;;;;;;13.68;11.80;;;;;;;;;;5281035;28;20112;-68
2022/04/23 13:51:14;;;;;;;13.13;11.68;;;;;;;;;;5281846;28;20051;-68
2022/04/23 13:53:45;;;;;;;11.60;10.02;;;;;;;;;;5281554;28;20025;-69
2022/04/23 13:56:17;;;;;;;12.60;10.82;;;;;;;;;;5281216;28;20009;-70
2022/04/23 13:58:48;;;;;;;12.82;10.10;;;;;;;;;;5281775;28;20122;-70
2022/04/23 14:01:19;;;;;;;12.67;10.97;;;;;;;;;;5281457;28;20028;-68
2022/04/23 14:12:20;;;;;;;17.10;15.45;;;;;;;;;;5281909;28;20040;-68
2022/04/23 14:14:51;;;;;;;17.53;15.80;;;;;;;;;;5282018;28;20040;-68
2022/04/23 14:17:22;;;;;;;16.50;14.82;;;;;;;;;;5280635;28;20328;-68
2022/04/23 14:19:54;;;;;;;17.60;15.18;;;;;;;;;;5282175;28;20019;-69
2022/04/23 14:22:25;;;;;;;16.10;14.52;;;;;;;;;;5281342;28;20032;-69
2022/04/23 14:24:59;;;;;;;17.30;14.73;;;;;;;;;;5280025;28;20075;-69
2022/04/23 14:27:31;;;;;;;14.05;12.27;;;;;;;;;;5280719;28;20024;-68
2022/04/23 14:30:05;;;;;;;8.82;6.22;;;;;;;;;;5281420;28;20020;-68
2022/04/23 14:32:36;;;;;;;8.25;6.13;;;;;;;;;;5280182;28;20036;-68
2022/04/23 14:35:08;;;;;;;6.60;5.83;;;;;;;;;;5281897;28;20374;-70
2022/04/23 14:37:39;;;;;;;6.45;5.85;;;;;;;;;;5280536;28;20362;-70
2022/04/23 14:40:11;;;;;;;7.00;5.43;;;;;;;;;;5281860;28;20012;-70
2022/04/23 14:42:42;;;;;;;6.45;5.85;;;;;;;;;;5280930;28;20044;-68
2022/04/23 14:45:18;;;;;;;8.45;6.47;;;;;;;;;;5281041;28;20514;-68
2022/04/23 14:47:51;;;;;;;13.88;12.25;;;;;;;;;;5281133;28;20020;-69
2022/04/23 14:50:22;;;;;;;13.60;11.15;;;;;;;;;;5280702;28;20429;-69
2022/04/23 14:53:12;;;;;;;10.95;9.85;;;;;;;;;;5280334;28;20033;-69
2022/04/23 14:55:43;;;;;;;11.45;8.95;;;;;;;;;;5280933;28;20017;-69
2022/04/23 14:58:15;;;;;;;8.90;7.97;;;;;;;;;;5281531;28;20078;-69
2022/04/23 15:00:46;;;;;;;7.90;7.13;;;;;;;;;;5280228;28;20051;-69
2022/04/23 15:03:17;;;;;;;10.90;9.40;;;;;;;;;;5281235;28;20027;-69
2022/04/23 15:05:49;;;;;;;14.02;10.68;;;;;;;;;;5279794;28;20507;-69
2022/04/23 15:08:20;;;;;;;12.57;11.27;;;;;;;;;;5281044;28;20463;-68
2022/04/23 15:10:51;;;;;;;12.10;10.82;;;;;;;;;;5280746;28;20314;-68
2022/04/23 15:13:22;;;;;;;17.50;13.70;;;;;;;;;;5279693;28;20040;-70
2022/04/23 15:15:53;;;;;;;14.17;12.83;;;;;;;;;;5281133;28;20048;-70
2022/04/23 15:18:25;;;;;;;15.65;12.32;;;;;;;;;;5280692;28;20676;-69
2022/04/23 15:20:56;;;;;;;11.88;10.60;;;;;;;;;;5280444;28;20085;-69
2022/04/23 15:23:30;;;;;;;12.77;10.50;;;;;;;;;;5280477;28;20028;-69
2022/04/23 15:26:05;;;;;;;11.57;10.38;;;;;;;;;;5280872;28;20046;-70
2022/04/23 15:28:36;;;;;;;10.88;9.70;;;;;;;;;;5279746;28;20016;-68
2022/04/23 15:31:08;;;;;;;11.65;10.00;;;;;;;;;;5280579;28;20017;-69
2022/04/23 15:33:39;;;;;;;12.20;10.10;;;;;;;;;;5279779;28;20511;-69
2022/04/23 15:36:10;;;;;;;12.83;11.47;;;;;;;;;;5283062;28;20023;-69
2022/04/23 15:38:42;;;;;;;19.60;15.77;;;;;;;;;;5284233;28;20298;-70
2022/04/23 15:41:13;;;;;;;19.90;17.05;;;;;;;;;;5283968;28;20013;-69
2022/04/23 15:43:44;;;;;;;18.93;16.57;;;;;;;;;;5284486;28;20028;-69